sensor_id;sensor_type;location;lat;lon;timestamp;P1;durP1;ratioP1;P2;durP2;ratioP2
52035;SDS011;38046;49.448;32.074;2023-04-03T00:01:31;7.28;;;5.00;;
52035;SDS011;38046;49.448;32.074;2023-04-03T00:03:56;5.85;;;4.57;;
52035;SDS011;38046;49.448;32.074;2023-04-03T00:06:22;5.82;;;4.80;;
52035;SDS011;38046;49.448;32.074;2023-04-03T00:08:48;6.20;;;5.10;;
52035;SDS011;38046;49.448;32.074;2023-04-03T00:11:15;6.78;;;4.57;;
52035;SDS011;38046;49.448;32.074;2023-04-03T00:13:41;5.25;;;4.43;;
52035;SDS011;38046;49.448;32.074;2023-04-03T00:16:08;4.90;;;4.30;;
52035;SDS011;38046;49.448;32.074;2023-04-03T00:18:35;5.60;;;4.55;;
52035;SDS011;38046;49.448;32.074;2023-04-03T00:21:01;5.30;;;4.53;;
52035;SDS011;38046;49.448;32.074;2023-04-03T00:23:27;5.55;;;4.82;;
52035;SDS011;38046;49.448;32.074;2023-04-03T00:25:53;6.82;;;4.97;;
52035;SDS011;38046;49.448;32.074;2023-04-03T00:28:19;5.70;;;4.82;;
52035;SDS011;38046;49.448;32.074;2023-04-03T00:30:45;5.22;;;4.45;;
52035;SDS011;38046;49.448;32.074;2023-04-03T00:33:14;6.05;;;5.07;;
52035;SDS011;38046;49.448;32.074;2023-04-03T00:35:40;6.25;;;4.15;;
52035;SDS011;38046;49.448;32.074;2023-04-03T00:38:06;6.63;;;5.25;;
52035;SDS011;38046;49.448;32.074;2023-04-03T00:40:34;6.03;;;4.47;;
52035;SDS011;38046;49.448;32.074;2023-04-03T00:43:10;4.55;;;4.10;;
52035;SDS011;38046;49.448;32.074;2023-04-03T00:45:38;5.97;;;4.60;;
52035;SDS011;38046;49.448;32.074;2023-04-03T00:48:07;6.22;;;4.97;;
52035;SDS011;38046;49.448;32.074;2023-04-03T00:50:37;6.32;;;4.65;;
52035;SDS011;38046;49.448;32.074;2023-04-03T00:53:05;5.85;;;4.53;;
52035;SDS011;38046;49.448;32.074;2023-04-03T00:55:33;6.10;;;4.63;;
52035;SDS011;38046;49.448;32.074;2023-04-03T00:58:01;6.60;;;5.20;;
52035;SDS011;38046;49.448;32.074;2023-04-03T01:00:27;6.47;;;4.60;;
52035;SDS011;38046;49.448;32.074;2023-04-03T01:02:53;6.32;;;5.20;;
52035;SDS011;38046;49.448;32.074;2023-04-03T01:05:19;5.15;;;4.55;;
52035;SDS011;38046;49.448;32.074;2023-04-03T01:07:46;6.60;;;5.00;;
52035;SDS011;38046;49.448;32.074;2023-04-03T01:10:14;7.13;;;5.05;;
52035;SDS011;38046;49.448;32.074;2023-04-03T01:12:43;5.78;;;5.05;;
52035;SDS011;38046;49.448;32.074;2023-04-03T01:15:12;6.75;;;4.97;;
52035;SDS011;38046;49.448;32.074;2023-04-03T01:17:48;5.68;;;4.72;;
52035;SDS011;38046;49.448;32.074;2023-04-03T01:25:46;5.90;;;4.80;;
52035;SDS011;38046;49.448;32.074;2023-04-03T01:28:22;6.68;;;5.00;;
52035;SDS011;38046;49.448;32.074;2023-04-03T01:33:42;6.47;;;5.25;;
52035;SDS011;38046;49.448;32.074;2023-04-03T01:36:08;6.07;;;5.10;;
52035;SDS011;38046;49.448;32.074;2023-04-03T01:38:34;6.78;;;5.50;;
52035;SDS011;38046;49.448;32.074;2023-04-03T01:41:00;6.50;;;4.80;;
52035;SDS011;38046;49.448;32.074;2023-04-03T01:43:26;6.93;;;4.90;;
52035;SDS011;38046;49.448;32.074;2023-04-03T01:45:52;6.65;;;4.93;;
52035;SDS011;38046;49.448;32.074;2023-04-03T01:48:19;7.53;;;5.43;;
52035;SDS011;38046;49.448;32.074;2023-04-03T01:50:45;8.27;;;5.38;;
52035;SDS011;38046;49.448;32.074;2023-04-03T01:53:11;5.65;;;5.05;;
52035;SDS011;38046;49.448;32.074;2023-04-03T01:55:37;6.10;;;4.90;;
52035;SDS011;38046;49.448;32.074;2023-04-03T01:58:03;5.65;;;4.78;;
52035;SDS011;38046;49.448;32.074;2023-04-03T02:00:29;6.47;;;5.57;;
52035;SDS011;38046;49.448;32.074;2023-04-03T02:02:54;6.88;;;4.75;;
52035;SDS011;38046;49.448;32.074;2023-04-03T02:05:20;5.80;;;5.03;;
52035;SDS011;38046;49.448;32.074;2023-04-03T02:07:46;6.10;;;4.93;;
52035;SDS011;38046;49.448;32.074;2023-04-03T02:10:11;6.22;;;4.97;;
52035;SDS011;38046;49.448;32.074;2023-04-03T02:12:37;6.70;;;5.05;;
52035;SDS011;38046;49.448;32.074;2023-04-03T02:15:03;6.13;;;4.82;;
52035;SDS011;38046;49.448;32.074;2023-04-03T02:17:29;5.82;;;4.60;;
52035;SDS011;38046;49.448;32.074;2023-04-03T02:19:55;5.97;;;5.13;;
52035;SDS011;38046;49.448;32.074;2023-04-03T02:22:20;6.72;;;5.20;;
52035;SDS011;38046;49.448;32.074;2023-04-03T02:24:46;5.70;;;4.80;;
52035;SDS011;38046;49.448;32.074;2023-04-03T02:27:12;6.47;;;5.35;;
52035;SDS011;38046;49.448;32.074;2023-04-03T02:29:37;6.18;;;4.95;;
52035;SDS011;38046;49.448;32.074;2023-04-03T02:32:03;7.22;;;5.40;;
52035;SDS011;38046;49.448;32.074;2023-04-03T02:34:29;5.78;;;4.78;;
52035;SDS011;38046;49.448;32.074;2023-04-03T02:36:55;6.28;;;5.32;;
52035;SDS011;38046;49.448;32.074;2023-04-03T02:39:21;6.10;;;5.22;;
52035;SDS011;38046;49.448;32.074;2023-04-03T02:41:46;6.53;;;5.00;;
52035;SDS011;38046;49.448;32.074;2023-04-03T02:44:12;5.88;;;4.78;;
52035;SDS011;38046;49.448;32.074;2023-04-03T02:46:38;6.50;;;5.35;;
52035;SDS011;38046;49.448;32.074;2023-04-03T02:49:04;6.00;;;4.80;;
52035;SDS011;38046;49.448;32.074;2023-04-03T02:51:30;6.57;;;4.78;;
52035;SDS011;38046;49.448;32.074;2023-04-03T02:53:55;6.68;;;5.00;;
52035;SDS011;38046;49.448;32.074;2023-04-03T02:56:21;5.15;;;4.60;;
52035;SDS011;38046;49.448;32.074;2023-04-03T02:58:47;6.35;;;5.13;;
52035;SDS011;38046;49.448;32.074;2023-04-03T03:01:12;6.40;;;5.07;;
52035;SDS011;38046;49.448;32.074;2023-04-03T03:03:38;5.63;;;4.43;;
52035;SDS011;38046;49.448;32.074;2023-04-03T03:06:14;6.47;;;5.47;;
52035;SDS011;38046;49.448;32.074;2023-04-03T03:08:41;6.70;;;5.47;;
52035;SDS011;38046;49.448;32.074;2023-04-03T03:11:07;6.60;;;5.22;;
52035;SDS011;38046;49.448;32.074;2023-04-03T03:13:33;5.65;;;4.80;;
52035;SDS011;38046;49.448;32.074;2023-04-03T03:15:59;5.47;;;4.72;;
52035;SDS011;38046;49.448;32.074;2023-04-03T03:18:25;6.35;;;5.72;;
52035;SDS011;38046;49.448;32.074;2023-04-03T03:20:54;6.60;;;5.32;;
52035;SDS011;38046;49.448;32.074;2023-04-03T03:23:22;5.37;;;4.70;;
52035;SDS011;38046;49.448;32.074;2023-04-03T03:25:54;7.00;;;5.13;;
52035;SDS011;38046;49.448;32.074;2023-04-03T03:28:20;5.73;;;5.00;;
52035;SDS011;38046;49.448;32.074;2023-04-03T03:30:46;5.82;;;4.97;;
52035;SDS011;38046;49.448;32.074;2023-04-03T03:33:12;6.43;;;5.18;;
52035;SDS011;38046;49.448;32.074;2023-04-03T03:35:37;6.40;;;5.30;;
52035;SDS011;38046;49.448;32.074;2023-04-03T03:38:03;7.15;;;5.45;;
52035;SDS011;38046;49.448;32.074;2023-04-03T03:40:28;6.38;;;5.20;;
52035;SDS011;38046;49.448;32.074;2023-04-03T03:42:54;7.20;;;5.50;;
52035;SDS011;38046;49.448;32.074;2023-04-03T03:45:20;7.28;;;5.75;;
52035;SDS011;38046;49.448;32.074;2023-04-03T03:47:45;8.40;;;5.88;;
52035;SDS011;38046;49.448;32.074;2023-04-03T03:50:11;6.93;;;5.43;;
52035;SDS011;38046;49.448;32.074;2023-04-03T03:52:37;6.90;;;5.53;;
52035;SDS011;38046;49.448;32.074;2023-04-03T03:55:04;6.10;;;5.35;;
52035;SDS011;38046;49.448;32.074;2023-04-03T03:57:30;7.95;;;5.55;;
52035;SDS011;38046;49.448;32.074;2023-04-03T03:59:55;6.38;;;5.13;;
52035;SDS011;38046;49.448;32.074;2023-04-03T04:02:21;5.53;;;4.95;;
52035;SDS011;38046;49.448;32.074;2023-04-03T04:04:46;6.25;;;5.10;;
52035;SDS011;38046;49.448;32.074;2023-04-03T04:07:13;6.35;;;5.15;;
52035;SDS011;38046;49.448;32.074;2023-04-03T04:09:39;6.22;;;4.82;;
52035;SDS011;38046;49.448;32.074;2023-04-03T04:12:04;5.10;;;4.53;;
52035;SDS011;38046;49.448;32.074;2023-04-03T04:14:30;6.32;;;5.38;;
52035;SDS011;38046;49.448;32.074;2023-04-03T04:16:56;6.47;;;4.65;;
52035;SDS011;38046;49.448;32.074;2023-04-03T04:19:22;5.60;;;4.90;;
52035;SDS011;38046;49.448;32.074;2023-04-03T04:21:47;5.95;;;4.82;;
52035;SDS011;38046;49.448;32.074;2023-04-03T04:24:13;6.10;;;4.68;;
52035;SDS011;38046;49.448;32.074;2023-04-03T04:26:39;5.88;;;4.65;;
52035;SDS011;38046;49.448;32.074;2023-04-03T04:29:05;5.32;;;4.65;;
52035;SDS011;38046;49.448;32.074;2023-04-03T04:31:30;5.20;;;4.70;;
52035;SDS011;38046;49.448;32.074;2023-04-03T04:33:56;6.15;;;5.10;;
52035;SDS011;38046;49.448;32.074;2023-04-03T04:36:22;5.93;;;5.05;;
52035;SDS011;38046;49.448;32.074;2023-04-03T04:38:47;7.43;;;5.30;;
52035;SDS011;38046;49.448;32.074;2023-04-03T04:41:13;6.18;;;4.72;;
52035;SDS011;38046;49.448;32.074;2023-04-03T04:43:39;4.93;;;4.18;;
52035;SDS011;38046;49.448;32.074;2023-04-03T04:46:07;5.95;;;5.25;;
52035;SDS011;38046;49.448;32.074;2023-04-03T04:48:35;6.13;;;4.80;;
52035;SDS011;38046;49.448;32.074;2023-04-03T04:51:01;6.95;;;5.15;;
52035;SDS011;38046;49.448;32.074;2023-04-03T04:53:27;5.57;;;4.57;;
52035;SDS011;38046;49.448;32.074;2023-04-03T04:55:53;6.45;;;5.10;;
52035;SDS011;38046;49.448;32.074;2023-04-03T04:58:19;5.85;;;4.50;;
52035;SDS011;38046;49.448;32.074;2023-04-03T05:00:45;5.15;;;4.53;;
52035;SDS011;38046;49.448;32.074;2023-04-03T05:03:10;5.25;;;4.45;;
52035;SDS011;38046;49.448;32.074;2023-04-03T05:05:37;5.10;;;4.50;;
52035;SDS011;38046;49.448;32.074;2023-04-03T05:08:03;6.07;;;4.63;;
52035;SDS011;38046;49.448;32.074;2023-04-03T05:10:29;6.28;;;5.00;;
52035;SDS011;38046;49.448;32.074;2023-04-03T05:12:56;6.57;;;4.70;;
52035;SDS011;38046;49.448;32.074;2023-04-03T05:15:22;5.55;;;4.30;;
52035;SDS011;38046;49.448;32.074;2023-04-03T05:17:48;6.00;;;4.72;;
52035;SDS011;38046;49.448;32.074;2023-04-03T05:20:14;5.97;;;4.65;;
52035;SDS011;38046;49.448;32.074;2023-04-03T05:22:39;5.97;;;5.10;;
52035;SDS011;38046;49.448;32.074;2023-04-03T05:25:05;5.95;;;4.75;;
52035;SDS011;38046;49.448;32.074;2023-04-03T05:27:31;5.68;;;4.22;;
52035;SDS011;38046;49.448;32.074;2023-04-03T05:29:57;5.68;;;4.65;;
52035;SDS011;38046;49.448;32.074;2023-04-03T05:32:23;5.85;;;4.82;;
52035;SDS011;38046;49.448;32.074;2023-04-03T05:34:51;5.40;;;4.82;;
52035;SDS011;38046;49.448;32.074;2023-04-03T05:37:17;5.30;;;4.65;;
52035;SDS011;38046;49.448;32.074;2023-04-03T05:39:43;5.22;;;4.22;;
52035;SDS011;38046;49.448;32.074;2023-04-03T05:42:09;4.63;;;4.18;;
52035;SDS011;38046;49.448;32.074;2023-04-03T05:44:36;5.15;;;4.40;;
52035;SDS011;38046;49.448;32.074;2023-04-03T05:47:02;5.45;;;4.60;;
52035;SDS011;38046;49.448;32.074;2023-04-03T05:49:28;6.35;;;4.60;;
52035;SDS011;38046;49.448;32.074;2023-04-03T05:51:53;5.47;;;4.60;;
52035;SDS011;38046;49.448;32.074;2023-04-03T05:54:26;6.30;;;4.45;;
52035;SDS011;38046;49.448;32.074;2023-04-03T05:56:53;5.65;;;4.40;;
52035;SDS011;38046;49.448;32.074;2023-04-03T05:59:19;6.32;;;4.78;;
52035;SDS011;38046;49.448;32.074;2023-04-03T06:01:46;5.80;;;4.57;;
52035;SDS011;38046;49.448;32.074;2023-04-03T06:04:13;4.55;;;4.05;;
52035;SDS011;38046;49.448;32.074;2023-04-03T06:06:52;5.43;;;4.60;;
52035;SDS011;38046;49.448;32.074;2023-04-03T06:09:20;5.95;;;4.82;;
52035;SDS011;38046;49.448;32.074;2023-04-03T06:11:47;6.40;;;4.80;;
52035;SDS011;38046;49.448;32.074;2023-04-03T06:14:13;5.22;;;4.32;;
52035;SDS011;38046;49.448;32.074;2023-04-03T06:16:39;6.82;;;4.82;;
52035;SDS011;38046;49.448;32.074;2023-04-03T06:19:05;5.30;;;4.80;;
52035;SDS011;38046;49.448;32.074;2023-04-03T06:21:34;6.35;;;4.93;;
52035;SDS011;38046;49.448;32.074;2023-04-03T06:24:00;5.70;;;4.20;;
52035;SDS011;38046;49.448;32.074;2023-04-03T06:26:27;5.30;;;4.53;;
52035;SDS011;38046;49.448;32.074;2023-04-03T06:28:54;6.20;;;4.75;;
52035;SDS011;38046;49.448;32.074;2023-04-03T06:31:19;5.22;;;4.72;;
52035;SDS011;38046;49.448;32.074;2023-04-03T06:33:45;5.78;;;4.55;;
52035;SDS011;38046;49.448;32.074;2023-04-03T06:36:11;4.78;;;4.25;;
52035;SDS011;38046;49.448;32.074;2023-04-03T06:38:37;5.82;;;4.65;;
52035;SDS011;38046;49.448;32.074;2023-04-03T06:41:03;5.32;;;4.30;;
52035;SDS011;38046;49.448;32.074;2023-04-03T06:43:28;5.80;;;4.93;;
52035;SDS011;38046;49.448;32.074;2023-04-03T06:45:56;5.80;;;4.22;;
52035;SDS011;38046;49.448;32.074;2023-04-03T06:48:22;5.50;;;4.65;;
52035;SDS011;38046;49.448;32.074;2023-04-03T06:50:48;6.28;;;4.63;;
52035;SDS011;38046;49.448;32.074;2023-04-03T06:53:13;6.72;;;4.80;;
52035;SDS011;38046;49.448;32.074;2023-04-03T06:55:39;6.20;;;4.55;;
52035;SDS011;38046;49.448;32.074;2023-04-03T06:58:06;5.60;;;4.65;;
52035;SDS011;38046;49.448;32.074;2023-04-03T07:00:32;6.57;;;5.15;;
52035;SDS011;38046;49.448;32.074;2023-04-03T07:02:58;7.82;;;5.25;;
52035;SDS011;38046;49.448;32.074;2023-04-03T07:05:24;5.40;;;4.10;;
52035;SDS011;38046;49.448;32.074;2023-04-03T07:07:51;5.25;;;4.07;;
52035;SDS011;38046;49.448;32.074;2023-04-03T07:10:17;6.32;;;4.78;;
52035;SDS011;38046;49.448;32.074;2023-04-03T07:12:42;5.32;;;4.45;;
52035;SDS011;38046;49.448;32.074;2023-04-03T07:15:08;5.78;;;4.55;;
52035;SDS011;38046;49.448;32.074;2023-04-03T07:17:34;5.55;;;4.47;;
52035;SDS011;38046;49.448;32.074;2023-04-03T07:20:01;5.32;;;4.30;;
52035;SDS011;38046;49.448;32.074;2023-04-03T07:22:28;5.72;;;4.72;;
52035;SDS011;38046;49.448;32.074;2023-04-03T07:24:54;5.40;;;4.60;;
52035;SDS011;38046;49.448;32.074;2023-04-03T07:27:20;5.03;;;4.25;;
52035;SDS011;38046;49.448;32.074;2023-04-03T07:29:46;5.70;;;4.63;;
52035;SDS011;38046;49.448;32.074;2023-04-03T07:32:15;5.32;;;4.28;;
52035;SDS011;38046;49.448;32.074;2023-04-03T07:34:41;6.15;;;4.93;;
52035;SDS011;38046;49.448;32.074;2023-04-03T07:37:07;6.07;;;4.53;;
52035;SDS011;38046;49.448;32.074;2023-04-03T07:39:34;4.75;;;4.25;;
52035;SDS011;38046;49.448;32.074;2023-04-03T07:42:00;6.18;;;4.35;;
52035;SDS011;38046;49.448;32.074;2023-04-03T07:44:26;5.28;;;4.03;;
52035;SDS011;38046;49.448;32.074;2023-04-03T07:46:52;5.45;;;4.43;;
52035;SDS011;38046;49.448;32.074;2023-04-03T07:49:20;6.47;;;4.80;;
52035;SDS011;38046;49.448;32.074;2023-04-03T07:51:48;5.30;;;4.40;;
52035;SDS011;38046;49.448;32.074;2023-04-03T07:54:14;5.63;;;4.50;;
52035;SDS011;38046;49.448;32.074;2023-04-03T07:56:43;5.45;;;4.20;;
52035;SDS011;38046;49.448;32.074;2023-04-03T07:59:12;5.68;;;4.50;;
52035;SDS011;38046;49.448;32.074;2023-04-03T08:01:38;5.80;;;4.22;;
52035;SDS011;38046;49.448;32.074;2023-04-03T08:04:04;5.40;;;4.53;;
52035;SDS011;38046;49.448;32.074;2023-04-03T08:06:30;5.10;;;4.60;;
52035;SDS011;38046;49.448;32.074;2023-04-03T08:08:59;6.50;;;4.60;;
52035;SDS011;38046;49.448;32.074;2023-04-03T08:11:25;5.20;;;4.40;;
52035;SDS011;38046;49.448;32.074;2023-04-03T08:13:51;4.60;;;4.00;;
52035;SDS011;38046;49.448;32.074;2023-04-03T08:16:18;4.95;;;4.10;;
52035;SDS011;38046;49.448;32.074;2023-04-03T08:18:47;6.00;;;4.47;;
52035;SDS011;38046;49.448;32.074;2023-04-03T08:21:13;5.05;;;4.43;;
52035;SDS011;38046;49.448;32.074;2023-04-03T08:23:39;9.20;;;6.10;;
52035;SDS011;38046;49.448;32.074;2023-04-03T08:26:09;5.72;;;5.13;;
52035;SDS011;38046;49.448;32.074;2023-04-03T08:28:36;8.60;;;5.50;;
52035;SDS011;38046;49.448;32.074;2023-04-03T08:31:03;8.65;;;5.38;;
52035;SDS011;38046;49.448;32.074;2023-04-03T08:33:31;5.90;;;5.20;;
52035;SDS011;38046;49.448;32.074;2023-04-03T08:35:57;6.65;;;4.90;;
52035;SDS011;38046;49.448;32.074;2023-04-03T08:38:23;5.43;;;4.80;;
52035;SDS011;38046;49.448;32.074;2023-04-03T08:40:59;5.95;;;5.32;;
52035;SDS011;38046;49.448;32.074;2023-04-03T08:49:42;5.95;;;5.28;;
52035;SDS011;38046;49.448;32.074;2023-04-03T08:52:20;5.57;;;4.70;;
52035;SDS011;38046;49.448;32.074;2023-04-03T08:55:03;6.22;;;5.03;;
52035;SDS011;38046;49.448;32.074;2023-04-03T08:57:33;6.78;;;5.30;;
52035;SDS011;38046;49.448;32.074;2023-04-03T09:00:06;7.85;;;5.38;;
52035;SDS011;38046;49.448;32.074;2023-04-03T09:02:45;5.82;;;5.05;;
52035;SDS011;38046;49.448;32.074;2023-04-03T09:05:14;5.90;;;5.30;;
52035;SDS011;38046;49.448;32.074;2023-04-03T09:10:47;7.75;;;5.43;;
52035;SDS011;38046;49.448;32.074;2023-04-03T09:13:26;5.95;;;5.22;;
52035;SDS011;38046;49.448;32.074;2023-04-03T09:16:04;6.05;;;5.15;;
52035;SDS011;38046;49.448;32.074;2023-04-03T09:19:09;5.25;;;4.45;;
52035;SDS011;38046;49.448;32.074;2023-04-03T09:21:43;5.53;;;4.68;;
52035;SDS011;38046;49.448;32.074;2023-04-03T09:24:12;5.88;;;5.25;;
52035;SDS011;38046;49.448;32.074;2023-04-03T09:27:03;6.85;;;5.70;;
52035;SDS011;38046;49.448;32.074;2023-04-03T09:29:32;6.50;;;5.90;;
52035;SDS011;38046;49.448;32.074;2023-04-03T09:32:09;7.63;;;5.45;;
52035;SDS011;38046;49.448;32.074;2023-04-03T09:34:58;8.95;;;6.65;;
52035;SDS011;38046;49.448;32.074;2023-04-03T09:40:01;10.88;;;6.68;;
52035;SDS011;38046;49.448;32.074;2023-04-03T09:42:29;8.40;;;6.53;;
52035;SDS011;38046;49.448;32.074;2023-04-03T09:44:58;9.25;;;6.75;;
52035;SDS011;38046;49.448;32.074;2023-04-03T09:52:39;7.45;;;6.70;;
52035;SDS011;38046;49.448;32.074;2023-04-03T09:55:16;6.68;;;5.95;;
52035;SDS011;38046;49.448;32.074;2023-04-03T09:57:45;6.80;;;6.03;;
52035;SDS011;38046;49.448;32.074;2023-04-03T10:00:19;6.78;;;5.38;;
52035;SDS011;38046;49.448;32.074;2023-04-03T10:02:55;6.68;;;5.47;;
52035;SDS011;38046;49.448;32.074;2023-04-03T10:05:34;7.15;;;5.72;;
52035;SDS011;38046;49.448;32.074;2023-04-03T10:10:41;6.95;;;5.55;;
52035;SDS011;38046;49.448;32.074;2023-04-03T10:15:42;6.88;;;5.22;;
52035;SDS011;38046;49.448;32.074;2023-04-03T10:18:19;7.63;;;6.00;;
52035;SDS011;38046;49.448;32.074;2023-04-03T10:21:08;7.20;;;6.10;;
52035;SDS011;38046;49.448;32.074;2023-04-03T10:23:45;6.68;;;5.50;;
52035;SDS011;38046;49.448;32.074;2023-04-03T10:34:59;6.38;;;5.05;;
52035;SDS011;38046;49.448;32.074;2023-04-03T10:37:33;6.60;;;5.90;;
52035;SDS011;38046;49.448;32.074;2023-04-03T10:42:56;7.57;;;6.25;;
52035;SDS011;38046;49.448;32.074;2023-04-03T10:57:14;7.70;;;6.10;;
52035;SDS011;38046;49.448;32.074;2023-04-03T11:02:27;7.03;;;5.93;;
52035;SDS011;38046;49.448;32.074;2023-04-03T11:05:45;8.38;;;6.05;;
52035;SDS011;38046;49.448;32.074;2023-04-03T11:08:32;6.95;;;5.22;;
52035;SDS011;38046;49.448;32.074;2023-04-03T11:11:06;8.40;;;5.95;;
52035;SDS011;38046;49.448;32.074;2023-04-03T11:13:55;8.13;;;6.15;;
52035;SDS011;38046;49.448;32.074;2023-04-03T11:16:30;7.90;;;6.10;;
52035;SDS011;38046;49.448;32.074;2023-04-03T11:19:03;7.25;;;6.20;;
52035;SDS011;38046;49.448;32.074;2023-04-03T11:21:39;10.13;;;6.50;;
52035;SDS011;38046;49.448;32.074;2023-04-03T11:27:08;8.15;;;6.07;;
52035;SDS011;38046;49.448;32.074;2023-04-03T11:29:47;8.02;;;5.93;;
52035;SDS011;38046;49.448;32.074;2023-04-03T11:35:04;8.75;;;6.35;;
52035;SDS011;38046;49.448;32.074;2023-04-03T11:37:36;8.20;;;6.28;;
52035;SDS011;38046;49.448;32.074;2023-04-03T11:40:24;7.68;;;6.07;;
52035;SDS011;38046;49.448;32.074;2023-04-03T11:45:29;6.75;;;5.60;;
52035;SDS011;38046;49.448;32.074;2023-04-03T11:48:01;8.52;;;6.38;;
52035;SDS011;38046;49.448;32.074;2023-04-03T11:50:38;7.57;;;6.30;;
52035;SDS011;38046;49.448;32.074;2023-04-03T12:13:36;7.97;;;6.72;;
52035;SDS011;38046;49.448;32.074;2023-04-03T12:16:04;8.30;;;6.30;;
52035;SDS011;38046;49.448;32.074;2023-04-03T12:29:50;8.40;;;6.82;;
52035;SDS011;38046;49.448;32.074;2023-04-03T12:39:55;7.72;;;6.22;;
52035;SDS011;38046;49.448;32.074;2023-04-03T12:47:43;7.53;;;6.03;;
52035;SDS011;38046;49.448;32.074;2023-04-03T12:50:28;9.13;;;6.85;;
52035;SDS011;38046;49.448;32.074;2023-04-03T12:52:59;6.75;;;5.43;;
52035;SDS011;38046;49.448;32.074;2023-04-03T12:55:28;7.15;;;5.90;;
52035;SDS011;38046;49.448;32.074;2023-04-03T12:57:54;7.43;;;6.18;;
52035;SDS011;38046;49.448;32.074;2023-04-03T13:00:28;8.05;;;6.72;;
52035;SDS011;38046;49.448;32.074;2023-04-03T13:02:57;7.65;;;5.93;;
52035;SDS011;38046;49.448;32.074;2023-04-03T13:05:23;6.63;;;5.22;;
52035;SDS011;38046;49.448;32.074;2023-04-03T13:07:52;7.28;;;5.30;;
52035;SDS011;38046;49.448;32.074;2023-04-03T13:10:22;8.02;;;6.35;;
52035;SDS011;38046;49.448;32.074;2023-04-03T13:12:49;7.25;;;6.20;;
52035;SDS011;38046;49.448;32.074;2023-04-03T13:15:29;7.20;;;5.53;;
52035;SDS011;38046;49.448;32.074;2023-04-03T13:18:04;7.43;;;5.97;;
52035;SDS011;38046;49.448;32.074;2023-04-03T13:20:31;6.70;;;5.95;;
52035;SDS011;38046;49.448;32.074;2023-04-03T13:25:31;7.00;;;5.82;;
52035;SDS011;38046;49.448;32.074;2023-04-03T13:28:00;7.63;;;6.00;;
52035;SDS011;38046;49.448;32.074;2023-04-03T13:30:30;5.75;;;5.10;;
52035;SDS011;38046;49.448;32.074;2023-04-03T13:33:02;7.05;;;5.85;;
52035;SDS011;38046;49.448;32.074;2023-04-03T13:35:36;5.82;;;5.20;;
52035;SDS011;38046;49.448;32.074;2023-04-03T13:38:06;6.47;;;5.47;;
52035;SDS011;38046;49.448;32.074;2023-04-03T13:40:53;6.70;;;5.15;;
52035;SDS011;38046;49.448;32.074;2023-04-03T13:43:42;6.15;;;5.20;;
52035;SDS011;38046;49.448;32.074;2023-04-03T13:48:45;6.32;;;5.43;;
52035;SDS011;38046;49.448;32.074;2023-04-03T13:53:43;6.50;;;5.45;;
52035;SDS011;38046;49.448;32.074;2023-04-03T13:56:33;6.00;;;4.80;;
52035;SDS011;38046;49.448;32.074;2023-04-03T14:06:57;6.65;;;5.85;;
52035;SDS011;38046;49.448;32.074;2023-04-03T14:09:24;7.18;;;5.82;;
52035;SDS011;38046;49.448;32.074;2023-04-03T14:11:59;6.57;;;5.40;;
52035;SDS011;38046;49.448;32.074;2023-04-03T14:14:30;7.70;;;5.88;;
52035;SDS011;38046;49.448;32.074;2023-04-03T14:16:59;6.40;;;5.22;;
52035;SDS011;38046;49.448;32.074;2023-04-03T14:19:28;7.13;;;4.88;;
52035;SDS011;38046;49.448;32.074;2023-04-03T14:21:57;6.18;;;4.97;;
52035;SDS011;38046;49.448;32.074;2023-04-03T14:24:23;6.75;;;6.00;;
52035;SDS011;38046;49.448;32.074;2023-04-03T14:26:50;5.72;;;5.13;;
52035;SDS011;38046;49.448;32.074;2023-04-03T14:29:17;5.57;;;5.00;;
52035;SDS011;38046;49.448;32.074;2023-04-03T14:31:44;5.90;;;4.80;;
52035;SDS011;38046;49.448;32.074;2023-04-03T14:34:11;5.72;;;4.90;;
52035;SDS011;38046;49.448;32.074;2023-04-03T14:36:38;6.00;;;5.15;;
52035;SDS011;38046;49.448;32.074;2023-04-03T14:39:04;6.35;;;5.05;;
52035;SDS011;38046;49.448;32.074;2023-04-03T14:41:31;5.10;;;4.60;;
52035;SDS011;38046;49.448;32.074;2023-04-03T14:43:57;6.40;;;5.43;;
52035;SDS011;38046;49.448;32.074;2023-04-03T14:46:30;5.72;;;4.40;;
52035;SDS011;38046;49.448;32.074;2023-04-03T14:48:58;5.20;;;4.70;;
52035;SDS011;38046;49.448;32.074;2023-04-03T14:51:24;6.25;;;5.15;;
52035;SDS011;38046;49.448;32.074;2023-04-03T14:53:51;6.75;;;5.72;;
52035;SDS011;38046;49.448;32.074;2023-04-03T14:56:24;6.10;;;5.47;;
52035;SDS011;38046;49.448;32.074;2023-04-03T14:58:59;6.95;;;6.00;;
52035;SDS011;38046;49.448;32.074;2023-04-03T15:01:27;6.63;;;5.47;;
52035;SDS011;38046;49.448;32.074;2023-04-03T15:03:53;7.38;;;6.03;;
52035;SDS011;38046;49.448;32.074;2023-04-03T15:06:19;5.80;;;5.20;;
52035;SDS011;38046;49.448;32.074;2023-04-03T15:08:46;6.20;;;5.45;;
52035;SDS011;38046;49.448;32.074;2023-04-03T15:11:12;6.22;;;5.55;;
52035;SDS011;38046;49.448;32.074;2023-04-03T15:13:39;6.63;;;5.63;;
52035;SDS011;38046;49.448;32.074;2023-04-03T15:16:05;7.65;;;5.90;;
52035;SDS011;38046;49.448;32.074;2023-04-03T15:18:37;6.53;;;5.30;;
52035;SDS011;38046;49.448;32.074;2023-04-03T15:21:04;6.30;;;5.20;;
52035;SDS011;38046;49.448;32.074;2023-04-03T15:23:30;6.22;;;5.07;;
52035;SDS011;38046;49.448;32.074;2023-04-03T15:25:56;5.97;;;5.38;;
52035;SDS011;38046;49.448;32.074;2023-04-03T15:28:30;7.55;;;5.65;;
52035;SDS011;38046;49.448;32.074;2023-04-03T15:31:00;5.65;;;5.05;;
52035;SDS011;38046;49.448;32.074;2023-04-03T15:33:26;6.97;;;5.07;;
52035;SDS011;38046;49.448;32.074;2023-04-03T15:35:52;6.95;;;5.53;;
52035;SDS011;38046;49.448;32.074;2023-04-03T15:38:18;6.45;;;5.22;;
52035;SDS011;38046;49.448;32.074;2023-04-03T15:40:44;8.85;;;6.55;;
52035;SDS011;38046;49.448;32.074;2023-04-03T15:43:12;6.43;;;5.50;;
52035;SDS011;38046;49.448;32.074;2023-04-03T15:45:38;7.70;;;6.82;;
52035;SDS011;38046;49.448;32.074;2023-04-03T15:48:04;8.48;;;7.07;;
52035;SDS011;38046;49.448;32.074;2023-04-03T15:50:31;7.40;;;5.85;;
52035;SDS011;38046;49.448;32.074;2023-04-03T15:52:58;6.50;;;5.80;;
52035;SDS011;38046;49.448;32.074;2023-04-03T15:55:27;7.70;;;5.90;;
52035;SDS011;38046;49.448;32.074;2023-04-03T15:57:57;6.93;;;5.93;;
52035;SDS011;38046;49.448;32.074;2023-04-03T16:00:24;6.88;;;5.40;;
52035;SDS011;38046;49.448;32.074;2023-04-03T16:02:51;6.68;;;5.50;;
52035;SDS011;38046;49.448;32.074;2023-04-03T16:05:20;8.23;;;5.90;;
52035;SDS011;38046;49.448;32.074;2023-04-03T16:07:46;7.03;;;5.65;;
52035;SDS011;38046;49.448;32.074;2023-04-03T16:10:12;6.03;;;5.28;;
52035;SDS011;38046;49.448;32.074;2023-04-03T16:12:39;5.93;;;4.85;;
52035;SDS011;38046;49.448;32.074;2023-04-03T16:15:05;6.72;;;5.10;;
52035;SDS011;38046;49.448;32.074;2023-04-03T16:17:32;7.22;;;4.78;;
52035;SDS011;38046;49.448;32.074;2023-04-03T16:19:59;5.60;;;5.00;;
52035;SDS011;38046;49.448;32.074;2023-04-03T16:22:25;5.82;;;5.10;;
52035;SDS011;38046;49.448;32.074;2023-04-03T16:24:52;8.65;;;5.40;;
52035;SDS011;38046;49.448;32.074;2023-04-03T16:27:18;6.25;;;4.80;;
52035;SDS011;38046;49.448;32.074;2023-04-03T16:29:44;6.07;;;5.28;;
52035;SDS011;38046;49.448;32.074;2023-04-03T16:32:10;6.10;;;5.20;;
52035;SDS011;38046;49.448;32.074;2023-04-03T16:34:37;5.63;;;4.88;;
52035;SDS011;38046;49.448;32.074;2023-04-03T16:37:02;5.80;;;5.10;;
52035;SDS011;38046;49.448;32.074;2023-04-03T16:39:28;4.85;;;4.28;;
52035;SDS011;38046;49.448;32.074;2023-04-03T16:41:54;5.55;;;4.88;;
52035;SDS011;38046;49.448;32.074;2023-04-03T16:44:20;6.13;;;4.53;;
52035;SDS011;38046;49.448;32.074;2023-04-03T16:46:45;5.80;;;4.88;;